Impacts TAF Board INFO
FOR SITUATIONAL AWARENESS. NOT TO BE USED FOR FLIGHT PLANNING PURPOSES.
IDs:

KMCO - Orlando Intl, FL, US

Issued at 0857 UTC 19 Nov 2017
Updated at 1004 UTC 19 Nov 2017
Potential Impact None Slight Moderate High
Time0953Z 19/11Z 19/12Z 19/13Z 19/14Z 19/15Z 19/16Z 19/17Z 19/18Z 19/19Z 19/20Z 19/21Z 19/22Z 19/23Z>>
Type OBS PRVL PRVL PRVL PRVL PRVL PRVL PRVL PRVL PRVL PRVL PRVL PRVL PRVL
VIS 10 >6 >6 >6 >6 >6 >6 >6 >6 >6 >6 >6 >6 >6
CIG -- -- -- -- -- -- 50 50 50 50 50 40 40 40
Cover CLR SKC SKC SKC SKC SKC BKN BKN BKN BKN BKN BKN BKN BKN
FltCat VFR VFR VFR VFR VFR VFR VFR VFR VFR VFR VFR VFR VFR VFR
WX -- -- -- -- -- -- VCSH VCSH VCSH VCSH VCSH -- -- --
WDir 190 210 210 210 210 210 250 250 250 250 250 310 310 310
WSpd 5 4 4 4 4 4 10 10 10 10 10 10 10 10
WGst -- -- -- -- -- -- -- -- -- -- -- -- -- --

Raw TAF
KMCO 190857Z 1909/2012 21004KT P6SM SKC
  FM191600 25010KT P6SM VCSH BKN050
  FM192100 31010KT P6SM SCT025 BKN040
  FM200200 34006KT P6SM SKC


Raw METAR
KMCO 190953Z 19005KT 10SM CLR 14/14 A2993 RMK AO2 SLP133 T01390139
KMCO 190853Z 20004KT 10SM CLR 13/13 A2994 RMK AO2 SLP136 T01280128 58008
KMCO 190753Z 00000KT 10SM FEW050 14/14 A2995 RMK AO2 SLP138 T01440139

METAR Board
Radar Display
Forecast Discussion

FOR SITUATIONAL AWARENESS. NOT TO BE USED FOR FLIGHT PLANNING PURPOSES.